Bookmark and Share
Track history (hours):
 

MSC Florentina

Last reported at 2014-Mar-31 21:26 UTC. Time now 2014-Apr-17 06:49 UTC.
Position N 36°23' E 014°51'.
Warning: this ship's position is 16 days out of date.

Length 300 m; draft 14.5 m.

Type: Ship (hazmat cat A). MMSI: 352870000.

NotesDate/timePositionNaut miles runAvg speedWind from/ knotsBaromVisibWave heightAir tempDewpointWater temp
2014-Mar-31 21:26N 36°23' E 014°51'1516.5
2014-Mar-31 20:32N 36°28' E 014°34'1616.0
2014-Mar-31 19:33N 36°33' E 014°15'1616.0
2014-Mar-31 18:33N 36°38' E 013°56'1616.3
2014-Mar-31 17:33N 36°43' E 013°37'1514.7
2014-Mar-31 16:33N 36°47' E 013°20'1515.4
2014-Mar-31 15:33N 36°52' E 013°01'1615.6
2014-Mar-31 14:31N 36°57' E 012°42'3415.6
2014-Mar-31 12:20N 37°06' E 012°01'1215.7
2014-Mar-31 11:33N 37°10' E 011°46'1615.8
2014-Mar-31 10:34N 37°16' E 011°28'1616.1
2014-Mar-31 09:33N 37°23' E 011°09'77515.7
2014-Mar-29 08:15N 36°03' W 004°53'1116.3
2014-Mar-29 07:33N 36°01' W 005°06'1919.3
2014-Mar-29 06:33N 35°57' W 005°30'1818.1
2014-Mar-29 05:33N 35°55' W 005°52'  
2014-Mar-25 23:13N 50°17' W 001°12'1116.2
2014-Mar-25 22:33N 50°20' W 000°55'1616.1
2014-Mar-25 21:33N 50°24' W 000°31'3215.5
2014-Mar-25 19:31N 50°33' E 000°17'1414.7
2014-Mar-25 18:33N 50°38' E 000°38'1414.2
2014-Mar-25 17:33N 50°45' E 000°57'2914.2
2014-Mar-25 15:30N 51°05' E 001°32'1516.0
2014-Mar-25 14:33N 51°16' E 001°48'1313.3
2014-Mar-25 13:33N 51°24' E 002°05'1414.2
2014-Mar-25 12:33N 51°23' E 002°28'1212.3
2014-Mar-25 11:33N 51°24' E 002°47'1515.4
2014-Mar-25 10:33N 51°24' E 003°12'1716.6
2014-Mar-25 09:34N 51°26' E 003°38'1211.5
2014-Mar-25 08:31N 51°23' E 003°56'7 7.3
2014-Mar-25 07:33N 51°22' E 004°08'6 6.0
2014-Mar-25 06:34N 51°21' E 004°17'0 0.4
2014-Mar-25 05:29N 51°21' E 004°18'1 1.6
2014-Mar-25 04:33N 51°19' E 004°19'0 0.0
2014-Mar-25 03:32N 51°19' E 004°19'0 0.0
2014-Mar-25 02:32N 51°19' E 004°19'0 0.0
2014-Mar-25 01:32N 51°19' E 004°19'0 0.0
2014-Mar-24 16:58N 51°19' E 004°19'39 0.9
2014-Mar-22 20:22N 51°58' E 004°04'0 0.0
2014-Mar-22 17:30N 51°58' E 004°04'0 0.0
2014-Mar-22 14:28N 51°58' E 004°04'0 0.0
2014-Mar-22 13:31N 51°58' E 004°04'0 0.0
2014-Mar-22 12:31N 51°58' E 004°04'0 0.0
2014-Mar-22 10:33N 51°58' E 004°04'0 0.0
2014-Mar-22 09:29N 51°58' E 004°04'0 0.0
2014-Mar-22 08:32N 51°58' E 004°04'0 0.0
2014-Mar-22 07:33N 51°58' E 004°04'2 2.0
2014-Mar-22 06:33N 51°59' E 004°03'1010.3
2014-Mar-22 05:33N 51°59' E 003°46'11 5.1
2014-Mar-22 03:27N 51°54' E 003°31'0 0.0
2014-Mar-22 02:32N 51°54' E 003°31'0 0.1
2014-Mar-22 01:33N 51°54' E 003°31'10 9.8
2014-Mar-22 00:33N 51°54' E 003°15'1111.0
2014-Mar-21 23:32N 51°50' E 002°58'1111.0
2014-Mar-21 22:33N 51°47' E 002°41'1211.0
2014-Mar-21 21:28N 51°39' E 002°27'  

Dump ship's entire track history

sailing weather and tide predictions

MSC Florentina — HPFH — position and weather